Terminal Aerodrome Forecast
Issued by NWS

Home | Current Version | Previous Version | Text Only | Print | Product List | Glossary Off
Versions: 1 2 3 4 5 6 7 8 9 10 11 12 13 14 15 16 17 18 19 20 21

000
FTUS43 KBIS 051735
TAFJMS
TAF
KJMS 051735Z 0518/0618 06008KT P6SM VCSH OVC080
     FM052000 34010KT 1/2SM SN OVC008
     FM060000 30011KT 1SM -SN OVC003
     FM060200 30014G24KT 1 1/2SM BLSN VCSH OVC008
     FM060900 31024G34KT 2SM BLSN VCSH OVC010=

USA.gov is the U.S. government's official web portal to all federal, state and local government web resources and services.